createdAt,value
2022-08-18T00:01:23.293Z,23.13
2022-08-18T00:03:56.937Z,23.14
2022-08-18T00:06:30.031Z,23.16
2022-08-18T00:09:01.301Z,23.07
2022-08-18T00:11:41.290Z,23.11
2022-08-18T00:14:21.489Z,23.15
2022-08-18T00:16:52.326Z,23.27
2022-08-18T00:19:19.055Z,23.29
2022-08-18T00:21:45.741Z,23.31
2022-08-18T00:24:12.498Z,23.38
2022-08-18T00:26:39.150Z,23.42
2022-08-18T00:29:08.205Z,23.45
2022-08-18T00:31:35.054Z,23.40
2022-08-18T00:34:01.994Z,23.36
2022-08-18T00:36:28.937Z,23.34
2022-08-18T00:38:55.679Z,23.32
2022-08-18T00:41:26.611Z,23.27
2022-08-18T00:43:54.730Z,23.25
2022-08-18T00:46:24.805Z,23.23
2022-08-18T00:48:52.604Z,23.21
2022-08-18T00:51:23.743Z,23.14
2022-08-18T00:53:59.895Z,23.14
2022-08-18T00:56:31.336Z,23.12
2022-08-18T00:59:14.711Z,22.94
2022-08-18T01:01:42.191Z,23.11
2022-08-18T01:04:17.263Z,23.02
2022-08-18T01:06:51.882Z,23.02
2022-08-18T01:09:18.791Z,23.09
2022-08-18T01:11:45.667Z,23.07
2022-08-18T01:14:15.870Z,23.08
2022-08-18T01:17:03.891Z,23.04
2022-08-18T01:19:49.321Z,23.02
2022-08-18T01:22:39.119Z,22.81
2022-08-18T01:25:26.338Z,22.98
2022-08-18T01:27:56.986Z,22.96
2022-08-18T01:30:27.711Z,22.98
2022-08-18T01:32:59.062Z,22.92
2022-08-18T01:35:27.237Z,22.96
2022-08-18T01:37:54.978Z,22.95
2022-08-18T01:41:27.424Z,22.91
2022-08-18T01:43:11.610Z,22.88
2022-08-18T01:45:38.534Z,22.93
2022-08-18T01:48:05.489Z,22.94
2022-08-18T01:50:34.632Z,22.94
2022-08-18T01:53:05.325Z,22.92
2022-08-18T01:55:37.038Z,22.91
2022-08-18T01:58:04.718Z,22.89
2022-08-18T02:00:32.334Z,22.88
2022-08-18T02:03:02.308Z,22.85
2022-08-18T02:05:49.873Z,22.62
2022-08-18T02:08:16.622Z,22.81
2022-08-18T02:10:43.324Z,22.81
2022-08-18T02:13:10.113Z,22.76
2022-08-18T02:15:36.810Z,22.78
2022-08-18T02:18:03.521Z,22.80
2022-08-18T02:20:30.234Z,22.81
2022-08-18T02:22:58.599Z,22.75
2022-08-18T02:25:25.419Z,22.72
2022-08-18T02:27:52.215Z,22.68
2022-08-18T02:30:20.354Z,22.69
2022-08-18T02:32:47.116Z,22.69
2022-08-18T02:35:13.907Z,22.73
2022-08-18T02:37:42.257Z,22.73
2022-08-18T02:40:15.167Z,22.73
2022-08-18T02:42:43.535Z,22.73
2022-08-18T02:45:10.851Z,22.68
2022-08-18T02:47:37.594Z,22.67
2022-08-18T02:50:04.794Z,22.64
2022-08-18T02:52:37.391Z,22.58
2022-08-18T02:55:08.133Z,22.63
2022-08-18T02:57:34.822Z,22.57
2022-08-18T03:00:01.505Z,22.51
2022-08-18T03:02:28.245Z,22.50
2022-08-18T03:04:54.908Z,22.46
2022-08-18T03:07:25.208Z,22.50
2022-08-18T03:34:27.971Z,22.50
2022-08-18T03:36:54.651Z,22.42
2022-08-18T03:39:23.589Z,22.41
2022-08-18T03:41:58.652Z,22.37
2022-08-18T03:44:36.466Z,22.30
2022-08-18T03:47:04.435Z,22.39
2022-08-18T03:49:33.401Z,22.41
2022-08-18T03:52:00.724Z,22.32
2022-08-18T03:54:28.311Z,22.32
2022-08-18T03:57:00.428Z,22.29
2022-08-18T03:59:31.657Z,22.33
2022-08-18T04:01:58.497Z,22.31
2022-08-18T04:04:27.810Z,22.27
2022-08-18T04:07:00.267Z,22.23
2022-08-18T04:09:30.004Z,22.24
2022-08-18T04:11:57.746Z,22.22
2022-08-18T04:14:26.348Z,22.25
2022-08-18T04:16:53.246Z,22.21
2022-08-18T04:19:26.408Z,22.25
2022-08-18T04:21:55.487Z,22.22
2022-08-18T04:24:22.162Z,22.08
2022-08-18T04:26:49.853Z,22.18
2022-08-18T04:29:18.724Z,22.11
2022-08-18T04:31:45.715Z,22.15
2022-08-18T04:34:29.434Z,21.89
2022-08-18T04:36:56.115Z,22.10
2022-08-18T04:39:23.345Z,22.11
2022-08-18T04:41:50.707Z,22.10
2022-08-18T04:44:18.304Z,22.13
2022-08-18T04:46:48.715Z,22.10
2022-08-18T04:49:16.968Z,22.14
2022-08-18T04:52:36.413Z,22.09
2022-08-18T04:54:55.750Z,22.12
2022-08-18T04:57:22.963Z,22.11
2022-08-18T04:59:52.066Z,22.10
2022-08-18T05:02:20.348Z,22.10
2022-08-18T05:04:47.457Z,22.08
2022-08-18T05:07:17.542Z,22.06
2022-08-18T05:09:44.535Z,22.09
2022-08-18T05:12:14.137Z,22.11
2022-08-18T05:14:42.003Z,22.17
2022-08-18T05:17:08.901Z,22.14
2022-08-18T05:19:35.931Z,22.17
2022-08-18T05:22:09.148Z,22.16
2022-08-18T05:24:39.645Z,22.17
2022-08-18T05:27:07.454Z,22.14
2022-08-18T05:29:36.574Z,22.13
2022-08-18T05:32:37.135Z,22.09
2022-08-18T05:35:08.626Z,22.04
2022-08-18T05:37:54.279Z,22.09
2022-08-18T05:40:24.390Z,22.18
2022-08-18T05:42:51.358Z,22.22
2022-08-18T05:45:19.423Z,22.22
2022-08-18T05:47:46.089Z,22.21
2022-08-18T05:50:18.298Z,22.19
2022-08-18T05:53:13.342Z,22.23
2022-08-18T05:56:03.710Z,22.18
2022-08-18T05:58:34.434Z,22.18
2022-08-18T06:01:08.922Z,22.15
2022-08-18T06:08:22.526Z,22.22
2022-08-18T06:10:51.115Z,22.27
2022-08-18T06:13:20.068Z,22.28
2022-08-18T06:16:10.907Z,22.26
2022-08-18T06:18:41.703Z,22.33
2022-08-18T06:21:16.283Z,22.43
2022-08-18T06:24:20.110Z,22.20
2022-08-18T06:27:11.836Z,22.24
2022-08-18T06:30:05.142Z,22.27
2022-08-18T06:32:54.738Z,22.28
2022-08-18T06:35:38.641Z,22.26
2022-08-18T06:38:33.917Z,22.27
2022-08-18T06:41:38.066Z,22.26
2022-08-18T06:44:07.965Z,22.30
2022-08-18T06:46:37.496Z,22.32
2022-08-18T06:49:07.426Z,22.37
2022-08-18T06:51:38.736Z,22.36
2022-08-18T06:54:26.630Z,22.35
2022-08-18T06:56:55.292Z,22.36
2022-08-18T06:59:24.682Z,22.39
2022-08-18T07:01:54.784Z,22.43
2022-08-18T07:04:31.931Z,22.36
2022-08-18T07:06:59.638Z,22.45
2022-08-18T07:09:33.417Z,22.44
2022-08-18T07:12:07.090Z,22.48
2022-08-18T07:14:44.455Z,22.43
2022-08-18T07:17:14.719Z,22.51
2022-08-18T07:19:41.377Z,22.53
2022-08-18T07:22:17.267Z,22.48
2022-08-18T07:24:46.434Z,22.56
2022-08-18T07:27:41.624Z,22.54
2022-08-18T07:30:38.271Z,22.50
2022-08-18T07:33:12.491Z,22.52
2022-08-18T07:36:03.684Z,22.50
2022-08-18T07:38:44.181Z,22.52
2022-08-18T07:41:26.680Z,22.46
2022-08-18T07:44:03.859Z,22.54
2022-08-18T07:46:39.912Z,22.59
2022-08-18T07:49:08.289Z,22.67
2022-08-18T07:52:04.629Z,22.60
2022-08-18T07:54:55.127Z,22.67
2022-08-18T07:57:42.636Z,22.75
2022-08-18T08:00:55.195Z,22.79
2022-08-18T08:03:41.798Z,22.60
2022-08-18T08:06:20.543Z,22.64
2022-08-18T08:08:54.875Z,22.69
2022-08-18T08:11:53.002Z,22.54
2022-08-18T08:14:26.850Z,22.66
2022-08-18T08:17:18.049Z,22.51
2022-08-18T08:20:01.309Z,22.71
2022-08-18T08:22:52.715Z,22.61
2022-08-18T08:25:45.719Z,22.65
2022-08-18T08:28:21.912Z,22.59
2022-08-18T08:31:13.474Z,22.64
2022-08-18T08:33:50.208Z,22.70
2022-08-18T08:36:34.217Z,22.64
2022-08-18T08:39:12.897Z,22.72
2022-08-18T08:42:30.402Z,22.62
2022-08-18T08:45:22.369Z,22.60
2022-08-18T08:48:18.110Z,22.69
2022-08-18T08:51:30.177Z,22.62
2022-08-18T08:54:23.434Z,22.59
2022-08-18T08:56:52.755Z,22.71
2022-08-18T08:59:22.251Z,22.75
2022-08-18T09:02:15.967Z,22.73
2022-08-18T09:05:08.924Z,22.66
2022-08-18T09:08:03.281Z,22.65
2022-08-18T09:11:11.638Z,22.68
2022-08-18T09:14:21.668Z,22.62
2022-08-18T09:17:19.051Z,22.65
2022-08-18T09:20:01.367Z,22.62
2022-08-18T09:22:36.888Z,22.71
2022-08-18T09:25:10.964Z,22.66
2022-08-18T09:28:00.188Z,22.73
2022-08-18T09:30:37.523Z,22.61
2022-08-18T09:33:25.526Z,22.59
2022-08-18T09:36:00.791Z,22.62
2022-08-18T09:39:18.371Z,22.41
2022-08-18T09:41:52.379Z,22.50
2022-08-18T09:44:48.389Z,22.26
2022-08-18T09:47:21.906Z,22.41
2022-08-18T09:49:53.738Z,22.53
2022-08-18T09:52:24.241Z,22.64
2022-08-18T09:54:52.962Z,22.65
2022-08-18T09:57:28.854Z,22.62
2022-08-18T10:00:04.680Z,22.66
2022-08-18T10:02:37.098Z,22.81
2022-08-18T10:05:15.894Z,22.74
2022-08-18T10:07:45.112Z,22.73
2022-08-18T10:14:02.970Z,22.56
2022-08-18T10:17:23.832Z,22.69
2022-08-18T10:20:09.533Z,22.72
2022-08-18T10:22:56.355Z,22.91
2022-08-18T10:25:32.475Z,22.99
2022-08-18T10:28:01.811Z,23.02
2022-08-18T10:30:36.496Z,23.08
2022-08-18T10:33:56.772Z,23.03
2022-08-18T10:36:53.669Z,23.22
2022-08-18T10:39:23.813Z,23.22
2022-08-18T10:42:23.736Z,23.19
2022-08-18T10:45:12.455Z,23.17
2022-08-18T10:47:42.889Z,23.31
2022-08-18T10:50:22.332Z,23.24
2022-08-18T10:53:39.605Z,23.22
2022-08-18T10:56:32.178Z,23.15
2022-08-18T10:59:17.133Z,23.21
2022-08-18T11:02:15.768Z,23.23
2022-08-18T11:04:45.914Z,23.33
2022-08-18T11:07:25.410Z,23.27
2022-08-18T11:10:05.212Z,23.43
2022-08-18T11:13:10.082Z,23.33
2022-08-18T11:16:05.754Z,23.50
2022-08-18T11:19:08.272Z,23.44
2022-08-18T11:24:28.967Z,23.50
2022-08-18T11:27:03.030Z,23.61
2022-08-18T11:29:32.617Z,23.65
2022-08-18T11:32:54.862Z,23.55
2022-08-18T11:36:11.324Z,23.64
2022-08-18T11:38:38.028Z,23.86
2022-08-18T11:41:17.354Z,23.81
2022-08-18T11:44:05.579Z,23.89
2022-08-18T11:49:33.666Z,24.03
2022-08-18T11:52:14.781Z,24.12
2022-08-18T11:55:24.195Z,24.03
2022-08-18T11:57:59.382Z,24.18
2022-08-18T12:00:42.922Z,24.13
2022-08-18T12:03:29.363Z,24.12
2022-08-18T12:06:19.151Z,24.13
2022-08-18T12:08:57.105Z,24.16
2022-08-18T12:11:34.081Z,24.16
2022-08-18T12:14:30.506Z,24.13
2022-08-18T12:16:54.182Z,24.10
2022-08-18T12:19:28.052Z,24.18
2022-08-18T12:22:00.129Z,24.28
2022-08-18T12:24:36.788Z,24.33
2022-08-18T12:27:21.095Z,24.37
2022-08-18T12:29:50.756Z,24.40
2022-08-18T12:32:46.748Z,24.44
2022-08-18T12:35:09.530Z,24.52
2022-08-18T12:40:25.723Z,24.63
2022-08-18T12:42:55.750Z,24.64
2022-08-18T12:45:27.108Z,24.71
2022-08-18T12:48:46.294Z,24.79
2022-08-18T12:51:34.374Z,24.73
2022-08-18T12:54:03.343Z,24.87
2022-08-18T12:57:27.670Z,24.84
2022-08-18T13:00:09.044Z,24.97
2022-08-18T13:03:09.695Z,24.83
2022-08-18T13:05:37.923Z,24.93
2022-08-18T13:08:06.514Z,24.98
2022-08-18T13:10:45.956Z,25.06
2022-08-18T13:13:15.423Z,25.06
2022-08-18T13:15:44.304Z,25.07
2022-08-18T13:18:28.981Z,25.15
2022-08-18T13:20:59.582Z,25.09
2022-08-18T13:23:28.360Z,25.10
2022-08-18T13:25:59.321Z,25.14
2022-08-18T13:28:33.423Z,25.12
2022-08-18T13:31:05.455Z,25.14
2022-08-18T13:33:35.216Z,25.22
2022-08-18T13:36:20.446Z,25.20
2022-08-18T13:38:52.313Z,25.25
2022-08-18T13:43:51.677Z,25.28
2022-08-18T13:46:45.930Z,25.16
2022-08-18T13:49:18.576Z,25.28
2022-08-18T13:51:52.506Z,25.34
2022-08-18T13:54:31.277Z,25.36
2022-08-18T13:57:04.885Z,25.43
2022-08-18T13:59:34.134Z,25.24
2022-08-18T14:02:05.899Z,25.44
2022-08-18T14:04:36.293Z,25.53
2022-08-18T14:07:08.973Z,25.45
2022-08-18T14:09:38.120Z,25.41
2022-08-18T14:12:22.937Z,25.35
2022-08-18T14:14:55.029Z,25.33
2022-08-18T14:17:24.373Z,25.34
2022-08-18T14:20:14.936Z,25.33
2022-08-18T14:23:06.391Z,25.39
2022-08-18T14:25:52.168Z,25.48
2022-08-18T14:28:48.597Z,25.46
2022-08-18T14:31:20.751Z,25.55
2022-08-18T14:33:53.465Z,25.58
2022-08-18T14:36:29.593Z,25.61
2022-08-18T14:39:00.766Z,25.56
2022-08-18T14:41:28.209Z,25.52
2022-08-18T14:44:12.503Z,25.46
2022-08-18T14:46:40.959Z,25.44
2022-08-18T14:49:08.021Z,25.48
2022-08-18T14:51:35.518Z,25.51
2022-08-18T14:54:02.410Z,25.54
2022-08-18T14:56:29.404Z,25.58
2022-08-18T14:58:56.606Z,25.60
2022-08-18T15:01:24.611Z,25.66
2022-08-18T15:03:54.346Z,25.67
2022-08-18T15:06:23.028Z,25.64
2022-08-18T15:08:57.156Z,25.65
2022-08-18T15:11:24.584Z,25.68
2022-08-18T15:13:55.055Z,25.70
2022-08-18T15:16:23.051Z,25.69
2022-08-18T15:18:58.415Z,25.64
2022-08-18T15:21:43.890Z,25.67
2022-08-18T15:24:30.853Z,25.64
2022-08-18T15:27:05.767Z,25.66
2022-08-18T15:29:33.567Z,25.62
2022-08-18T15:32:05.571Z,25.65
2022-08-18T15:34:46.749Z,25.65
2022-08-18T15:37:19.386Z,25.60
2022-08-18T15:40:05.351Z,25.49
2022-08-18T15:42:34.052Z,25.58
2022-08-18T15:45:58.744Z,25.43
2022-08-18T15:48:29.779Z,25.56
2022-08-18T15:56:35.569Z,25.35
2022-08-18T15:59:34.342Z,25.34
2022-08-18T16:02:35.527Z,25.27
2022-08-18T16:05:56.283Z,25.36
2022-08-18T16:13:17.984Z,25.34
2022-08-18T16:21:17.556Z,25.28
2022-08-18T16:24:13.593Z,25.28
2022-08-18T16:32:20.218Z,25.18
2022-08-18T16:39:26.788Z,25.13
2022-08-18T17:16:39.727Z,25.16
2022-08-18T17:19:07.974Z,25.07
2022-08-18T17:21:35.933Z,25.11
2022-08-18T17:24:05.985Z,25.16
2022-08-18T17:26:48.331Z,25.00
2022-08-18T17:34:10.426Z,25.03
2022-08-18T17:36:52.969Z,25.00
2022-08-18T17:39:24.615Z,25.11
2022-08-18T17:42:10.219Z,25.10
2022-08-18T17:44:46.331Z,25.13
2022-08-18T17:47:55.825Z,24.97
2022-08-18T17:50:51.493Z,25.05
2022-08-18T17:53:18.379Z,25.09
2022-08-18T18:00:55.524Z,24.87
2022-08-18T18:17:12.770Z,24.91
2022-08-18T18:19:46.579Z,24.92
2022-08-18T18:22:25.797Z,24.89
2022-08-18T18:24:52.376Z,24.85
2022-08-18T18:27:27.292Z,24.83
2022-08-18T18:30:02.070Z,24.84
2022-08-18T18:32:59.463Z,24.79
2022-08-18T18:35:27.771Z,24.74
2022-08-18T18:37:58.657Z,24.80
2022-08-18T18:40:33.456Z,24.73
2022-08-18T18:43:21.686Z,24.65
2022-08-18T18:46:06.425Z,24.79
2022-08-18T18:48:51.289Z,24.77
2022-08-18T18:51:50.797Z,24.68
2022-08-18T18:54:49.807Z,24.68
2022-08-18T18:57:22.358Z,24.75
2022-08-18T19:00:20.259Z,24.71
2022-08-18T19:03:24.154Z,24.64
2022-08-18T19:06:48.033Z,24.64
2022-08-18T19:09:50.421Z,24.53
2022-08-18T19:12:34.192Z,24.59
2022-08-18T19:15:08.915Z,24.63
2022-08-18T19:17:40.765Z,24.69
2022-08-18T19:20:20.580Z,24.61
2022-08-18T19:22:54.407Z,24.58
2022-08-18T19:25:26.078Z,24.65
2022-08-18T19:28:04.121Z,24.59
2022-08-18T19:30:40.563Z,24.65
2022-08-18T19:33:24.764Z,24.57
2022-08-18T19:35:58.906Z,24.65
2022-08-18T19:38:32.862Z,24.56
2022-08-18T19:41:08.518Z,24.50
2022-08-18T19:43:37.715Z,24.59
2022-08-18T19:46:28.246Z,24.50
2022-08-18T19:49:02.487Z,24.54
2022-08-18T19:51:37.354Z,24.54
2022-08-18T19:54:13.424Z,24.56
2022-08-18T19:56:43.654Z,24.61
2022-08-18T19:59:35.148Z,24.49
2022-08-18T20:02:05.566Z,24.56
2022-08-18T20:04:46.379Z,24.51
2022-08-18T20:07:46.897Z,24.40
2022-08-18T20:10:30.506Z,24.36
2022-08-18T20:13:00.141Z,24.45
2022-08-18T20:15:28.486Z,24.45
2022-08-18T20:17:57.828Z,24.38
2022-08-18T20:20:26.993Z,24.42
2022-08-18T20:22:57.176Z,24.40
2022-08-18T20:25:24.174Z,24.32
2022-08-18T20:27:59.974Z,24.17
2022-08-18T20:30:51.798Z,24.20
2022-08-18T20:33:25.885Z,24.30
2022-08-18T20:36:14.183Z,24.12
2022-08-18T20:38:49.912Z,24.13
2022-08-18T20:41:23.592Z,24.15
2022-08-18T20:44:28.620Z,24.20
2022-08-18T20:47:11.173Z,24.23
2022-08-18T20:49:50.744Z,24.22
2022-08-18T20:52:37.807Z,24.11
2022-08-18T20:55:19.223Z,24.21
2022-08-18T20:57:46.763Z,24.27
2022-08-18T21:00:22.640Z,24.25
2022-08-18T21:02:57.433Z,24.30
2022-08-18T21:05:32.596Z,24.31
2022-08-18T21:08:16.013Z,24.18
2022-08-18T21:10:52.650Z,24.23
2022-08-18T21:13:56.417Z,24.16
2022-08-18T21:16:26.442Z,24.23
2022-08-18T21:19:13.649Z,24.22
2022-08-18T21:22:01.087Z,24.13
2022-08-18T21:24:36.558Z,24.16
2022-08-18T21:27:11.841Z,24.21
2022-08-18T21:29:47.251Z,24.21
2022-08-18T21:32:19.891Z,24.18
2022-08-18T21:34:47.081Z,24.26
2022-08-18T21:37:20.473Z,24.18
2022-08-18T21:39:58.392Z,24.13
2022-08-18T21:42:46.810Z,24.17
2022-08-18T21:45:18.502Z,24.12
2022-08-18T21:47:51.252Z,24.15
2022-08-18T21:50:27.765Z,24.07
2022-08-18T21:52:57.226Z,24.13
2022-08-18T21:55:42.325Z,24.09
2022-08-18T21:58:18.007Z,23.98
2022-08-18T22:01:13.948Z,23.90
2022-08-18T22:03:56.255Z,23.92
2022-08-18T22:06:34.028Z,23.93
2022-08-18T22:09:29.691Z,23.96
2022-08-18T22:12:45.249Z,23.91
2022-08-18T22:15:20.884Z,23.89
2022-08-18T22:17:56.764Z,23.85
2022-08-18T22:20:49.814Z,23.75
2022-08-18T22:23:35.110Z,23.63
2022-08-18T22:26:17.390Z,23.77
2022-08-18T22:28:55.877Z,23.77
2022-08-18T22:31:25.192Z,23.90
2022-08-18T22:33:53.620Z,23.89
2022-08-18T22:36:24.390Z,23.84
2022-08-18T22:38:52.301Z,23.89
2022-08-18T22:41:20.180Z,23.89
2022-08-18T22:43:47.335Z,23.86
2022-08-18T22:46:20.299Z,23.86
2022-08-18T22:48:52.256Z,23.83
2022-08-18T22:51:22.367Z,23.79
2022-08-18T22:53:49.196Z,23.80
2022-08-18T22:56:15.888Z,23.83
2022-08-18T22:58:49.430Z,23.83
2022-08-18T23:01:21.747Z,23.75
2022-08-18T23:03:48.514Z,23.80
2022-08-18T23:06:15.170Z,23.78
2022-08-18T23:08:54.572Z,23.78
2022-08-18T23:11:24.154Z,23.73
2022-08-18T23:13:51.975Z,23.76
2022-08-18T23:16:31.784Z,23.76
2022-08-18T23:19:03.032Z,23.81
2022-08-18T23:21:34.634Z,23.80
2022-08-18T23:24:06.496Z,23.78
2022-08-18T23:26:34.436Z,23.78
2022-08-18T23:29:01.557Z,23.77
2022-08-18T23:31:34.188Z,23.66
2022-08-18T23:34:01.015Z,23.75
2022-08-18T23:36:30.086Z,23.71
2022-08-18T23:38:56.800Z,23.76
2022-08-18T23:41:23.590Z,23.83
2022-08-18T23:43:50.783Z,23.80
2022-08-18T23:46:30.413Z,23.67
2022-08-18T23:48:58.670Z,23.76
2022-08-18T23:51:34.732Z,23.76
2022-08-18T23:54:07.775Z,23.79
2022-08-18T23:56:36.495Z,23.85
2022-08-18T23:59:06.204Z,23.73
